createdAt,value
2023-05-14T00:01:31.399Z,8.40
2023-05-14T00:03:52.940Z,8.53
2023-05-14T00:06:14.468Z,8.87
2023-05-14T00:08:36.497Z,8.63
2023-05-14T00:10:57.954Z,8.53
2023-05-14T00:13:18.939Z,9.47
2023-05-14T00:15:40.251Z,9.00
2023-05-14T00:18:02.876Z,9.40
2023-05-14T00:20:24.356Z,8.53
2023-05-14T00:22:45.773Z,9.33
2023-05-14T00:25:08.227Z,8.97
2023-05-14T00:27:29.373Z,8.40
2023-05-14T00:29:50.953Z,9.03
2023-05-14T00:32:12.377Z,9.43
2023-05-14T00:34:35.239Z,8.70
2023-05-14T00:36:56.663Z,9.10
2023-05-14T00:39:17.896Z,9.80
2023-05-14T00:41:39.213Z,9.07
2023-05-14T00:44:00.548Z,9.47
2023-05-14T00:46:21.817Z,9.63
2023-05-14T00:48:43.268Z,10.03
2023-05-14T00:51:06.580Z,10.57
2023-05-14T00:53:27.955Z,9.83
2023-05-14T00:55:50.214Z,10.17
2023-05-14T00:58:12.410Z,9.70
2023-05-14T01:00:33.680Z,9.93
2023-05-14T01:02:55.302Z,9.77
2023-05-14T01:05:16.539Z,10.33
2023-05-14T01:07:46.663Z,10.20
2023-05-14T01:10:12.714Z,9.47
2023-05-14T01:12:35.946Z,9.67
2023-05-14T01:15:01.856Z,10.37
2023-05-14T01:17:23.944Z,10.70
2023-05-14T01:19:45.883Z,11.23
2023-05-14T01:22:08.691Z,10.37
2023-05-14T01:24:29.815Z,10.83
2023-05-14T01:26:51.279Z,10.57
2023-05-14T01:29:15.285Z,10.73
2023-05-14T01:31:37.707Z,11.57
2023-05-14T01:33:59.769Z,11.60
2023-05-14T01:36:21.004Z,10.13
2023-05-14T01:38:45.830Z,10.80
2023-05-14T01:41:07.498Z,11.10
2023-05-14T01:43:28.617Z,10.83
2023-05-14T01:45:50.091Z,10.53
2023-05-14T01:48:11.920Z,11.17
2023-05-14T01:50:33.377Z,10.07
2023-05-14T01:52:56.755Z,10.60
2023-05-14T01:55:19.610Z,10.90
2023-05-14T01:57:41.003Z,10.70
2023-05-14T02:00:04.060Z,11.10
2023-05-14T02:02:25.492Z,12.50
2023-05-14T02:04:46.942Z,11.27
2023-05-14T02:07:07.912Z,12.43
2023-05-14T02:09:29.292Z,11.03
2023-05-14T02:11:51.899Z,11.33
2023-05-14T02:14:13.182Z,11.40
2023-05-14T02:16:34.678Z,11.30
2023-05-14T02:18:56.781Z,10.90
2023-05-14T02:21:18.182Z,10.07
2023-05-14T02:23:41.966Z,10.77
2023-05-14T02:26:03.410Z,12.03
2023-05-14T02:28:26.056Z,10.93
2023-05-14T02:30:47.274Z,11.07
2023-05-14T02:33:08.726Z,10.43
2023-05-14T02:35:29.853Z,10.40
2023-05-14T02:37:51.245Z,10.70
2023-05-14T02:40:12.728Z,10.23
2023-05-14T02:42:33.891Z,10.40
2023-05-14T02:44:56.593Z,10.67
2023-05-14T02:47:17.778Z,11.00
2023-05-14T02:49:39.314Z,9.97
2023-05-14T02:52:01.018Z,10.03
2023-05-14T02:54:22.562Z,9.73
2023-05-14T02:56:43.916Z,10.00
2023-05-14T02:59:05.730Z,9.80
2023-05-14T03:01:28.982Z,8.93
2023-05-14T03:03:50.975Z,9.93
2023-05-14T03:06:12.800Z,9.60
2023-05-14T03:08:34.041Z,9.67
2023-05-14T03:10:55.277Z,8.93
2023-05-14T03:13:17.919Z,8.40
2023-05-14T03:15:39.070Z,9.13
2023-05-14T03:18:01.783Z,9.57
2023-05-14T03:20:24.094Z,9.53
2023-05-14T03:22:45.286Z,9.33
2023-05-14T03:25:07.199Z,8.87
2023-05-14T03:27:29.297Z,9.20
2023-05-14T03:29:50.825Z,9.33
2023-05-14T03:32:12.202Z,9.07
2023-05-14T03:34:34.949Z,9.50
2023-05-14T03:36:56.259Z,8.87
2023-05-14T03:39:19.743Z,9.40
2023-05-14T03:41:41.053Z,8.70
2023-05-14T03:44:02.364Z,9.17
2023-05-14T03:46:23.759Z,8.40
2023-05-14T03:48:45.094Z,9.33
2023-05-14T03:51:07.878Z,10.07
2023-05-14T03:53:29.158Z,10.43
2023-05-14T03:55:51.027Z,9.90
2023-05-14T03:58:14.333Z,10.23
2023-05-14T04:00:35.725Z,9.33
2023-05-14T04:02:56.764Z,9.83
2023-05-14T04:05:17.874Z,9.33
2023-05-14T04:07:40.771Z,10.17
2023-05-14T04:10:04.211Z,9.93
2023-05-14T04:12:26.779Z,9.20
2023-05-14T04:14:47.861Z,10.97
2023-05-14T04:17:09.371Z,9.97
2023-05-14T04:19:30.679Z,10.30
2023-05-14T04:21:52.409Z,10.23
2023-05-14T04:24:15.071Z,9.77
2023-05-14T04:26:36.507Z,10.40
2023-05-14T04:28:58.324Z,10.40
2023-05-14T04:31:19.654Z,10.07
2023-05-14T04:33:41.094Z,10.23
2023-05-14T04:36:02.305Z,9.13
2023-05-14T04:38:23.570Z,9.40
2023-05-14T04:40:46.126Z,9.63
2023-05-14T04:43:07.986Z,9.10
2023-05-14T04:45:29.025Z,9.70
2023-05-14T04:47:51.365Z,9.20
2023-05-14T04:50:12.678Z,8.60
2023-05-14T04:52:34.467Z,9.20
2023-05-14T04:54:56.941Z,8.20
2023-05-14T04:57:19.866Z,8.83
2023-05-14T04:59:41.089Z,9.27
2023-05-14T05:02:02.423Z,9.37
2023-05-14T05:04:24.416Z,8.97
2023-05-14T05:06:45.369Z,8.93
2023-05-14T05:09:06.663Z,9.13
2023-05-14T05:11:28.004Z,8.10
2023-05-14T05:13:50.812Z,9.17
2023-05-14T05:16:12.180Z,8.90
2023-05-14T05:18:33.705Z,9.00
2023-05-14T05:20:55.465Z,8.67
2023-05-14T05:23:16.657Z,8.10
2023-05-14T05:25:38.003Z,8.60
2023-05-14T05:27:59.482Z,8.33
2023-05-14T05:30:22.474Z,7.53
2023-05-14T05:32:44.303Z,8.70
2023-05-14T05:35:06.595Z,8.27
2023-05-14T05:37:28.024Z,8.47
2023-05-14T05:39:49.502Z,8.40
2023-05-14T05:42:11.383Z,9.10
2023-05-14T05:44:32.390Z,8.63
2023-05-14T05:46:57.076Z,9.83
2023-05-14T05:49:19.106Z,8.90
2023-05-14T05:51:40.426Z,9.00
2023-05-14T05:54:01.833Z,9.60
2023-05-14T05:56:23.273Z,9.37
2023-05-14T05:58:45.117Z,8.90
2023-05-14T06:01:06.687Z,9.60
2023-05-14T06:03:29.355Z,10.27
2023-05-14T06:05:50.871Z,10.37
2023-05-14T06:08:12.217Z,9.93
2023-05-14T06:10:34.553Z,9.60
2023-05-14T06:12:55.896Z,10.00
2023-05-14T06:15:17.190Z,10.20
2023-05-14T06:17:38.889Z,9.77
2023-05-14T06:20:01.370Z,9.70
2023-05-14T06:22:22.853Z,10.63
2023-05-14T06:24:43.973Z,10.20
2023-05-14T06:27:06.309Z,10.90
2023-05-14T06:29:27.600Z,10.47
2023-05-14T06:31:49.114Z,10.43
2023-05-14T06:34:10.682Z,10.03
2023-05-14T06:36:33.292Z,10.73
2023-05-14T06:38:54.582Z,10.67
2023-05-14T06:41:15.989Z,10.73
2023-05-14T06:43:37.258Z,10.57
2023-05-14T06:45:58.561Z,10.70
2023-05-14T06:48:20.128Z,10.33
2023-05-14T06:50:41.597Z,9.77
2023-05-14T06:53:04.266Z,10.30
2023-05-14T06:55:25.672Z,10.07
2023-05-14T06:57:47.421Z,10.27
2023-05-14T07:00:09.378Z,9.77
2023-05-14T07:02:30.612Z,10.33
2023-05-14T07:04:51.898Z,10.30
2023-05-14T07:07:15.507Z,10.93
2023-05-14T07:09:38.260Z,9.70
2023-05-14T07:11:59.564Z,10.60
2023-05-14T07:14:20.884Z,10.70
2023-05-14T07:16:42.774Z,9.73
2023-05-14T07:19:04.233Z,10.47
2023-05-14T07:21:26.313Z,10.80
2023-05-14T07:23:47.756Z,11.37
2023-05-14T07:26:10.625Z,11.30
2023-05-14T07:28:31.850Z,11.70
2023-05-14T07:30:53.422Z,11.57
2023-05-14T07:33:14.664Z,11.57
2023-05-14T07:35:36.308Z,11.67
2023-05-14T07:37:58.142Z,11.43
2023-05-14T07:40:19.656Z,11.30
2023-05-14T07:42:42.100Z,11.10
2023-05-14T07:45:03.677Z,11.27
2023-05-14T07:47:25.063Z,11.03
2023-05-14T07:49:46.285Z,11.47
2023-05-14T07:52:07.339Z,11.73
2023-05-14T07:54:28.722Z,11.50
2023-05-14T07:56:49.839Z,11.77
2023-05-14T07:59:12.409Z,11.47
2023-05-14T08:01:33.896Z,11.97
2023-05-14T08:03:55.333Z,10.93
2023-05-14T08:06:16.770Z,11.70
2023-05-14T08:08:37.952Z,11.50
2023-05-14T08:10:59.494Z,11.23
2023-05-14T08:13:20.734Z,11.40
2023-05-14T08:15:43.495Z,11.43
2023-05-14T08:18:04.983Z,10.07
2023-05-14T08:20:27.087Z,10.70
2023-05-14T08:22:48.653Z,10.47
2023-05-14T08:25:10.380Z,10.57
2023-05-14T08:27:31.607Z,11.03
2023-05-14T08:29:52.714Z,10.73
2023-05-14T08:32:23.206Z,10.60
2023-05-14T08:34:45.107Z,9.80
2023-05-14T08:37:06.337Z,10.67
2023-05-14T08:39:27.378Z,12.27
2023-05-14T08:41:49.054Z,11.27
2023-05-14T08:44:12.832Z,11.47
2023-05-14T08:46:34.718Z,11.20
2023-05-14T08:48:58.259Z,11.17
2023-05-14T08:51:20.320Z,10.23
2023-05-14T08:53:41.662Z,10.77
2023-05-14T08:56:03.072Z,10.67
2023-05-14T08:58:26.568Z,10.33
2023-05-14T09:00:48.040Z,11.03
2023-05-14T09:03:09.547Z,11.07
2023-05-14T09:05:33.368Z,10.43
2023-05-14T09:07:54.679Z,11.07
2023-05-14T09:10:16.161Z,10.83
2023-05-14T09:12:37.106Z,10.43
2023-05-14T09:14:58.547Z,11.23
2023-05-14T09:17:20.127Z,10.27
2023-05-14T09:19:41.451Z,10.77
2023-05-14T09:22:09.210Z,9.83
2023-05-14T09:24:30.290Z,10.27
2023-05-14T09:26:52.622Z,10.37
2023-05-14T09:29:13.999Z,9.33
2023-05-14T09:31:37.295Z,9.00
2023-05-14T09:33:59.131Z,9.07
2023-05-14T09:36:20.500Z,10.33
2023-05-14T09:38:43.177Z,9.83
2023-05-14T09:41:04.622Z,9.43
2023-05-14T09:43:26.054Z,9.00
2023-05-14T09:45:47.474Z,8.63
2023-05-14T09:48:09.468Z,8.43
2023-05-14T09:50:30.673Z,8.83
2023-05-14T09:52:52.364Z,9.73
2023-05-14T09:55:15.226Z,9.60
2023-05-14T09:57:36.688Z,10.03
2023-05-14T09:59:58.470Z,9.57
2023-05-14T10:02:23.652Z,9.87
2023-05-14T10:04:45.520Z,9.93
2023-05-14T10:07:06.891Z,9.17
2023-05-14T10:09:29.009Z,9.77
2023-05-14T10:11:54.315Z,9.63
2023-05-14T10:14:19.701Z,9.60
2023-05-14T10:16:44.212Z,9.67
2023-05-14T10:19:09.795Z,8.57
2023-05-14T10:21:32.602Z,8.30
2023-05-14T10:23:54.009Z,8.50
2023-05-14T10:26:15.675Z,8.10
2023-05-14T10:28:38.485Z,7.80
2023-05-14T10:31:00.761Z,8.13
2023-05-14T10:33:22.103Z,7.80
2023-05-14T10:35:56.054Z,7.30
2023-05-14T10:38:17.342Z,7.03
2023-05-14T10:40:40.065Z,7.33
2023-05-14T10:43:01.518Z,6.50
2023-05-14T10:45:25.204Z,6.33
2023-05-14T10:47:47.790Z,6.07
2023-05-14T10:50:11.049Z,5.70
2023-05-14T10:52:32.177Z,5.47
2023-05-14T10:54:54.146Z,6.10
2023-05-14T10:57:15.426Z,5.97
2023-05-14T10:59:36.720Z,6.77
2023-05-14T11:01:59.655Z,6.93
2023-05-14T11:04:24.208Z,7.20
2023-05-14T11:06:45.683Z,6.80
2023-05-14T11:09:07.507Z,7.20
2023-05-14T11:11:29.253Z,7.03
2023-05-14T11:13:51.758Z,7.20
2023-05-14T11:16:23.245Z,7.20
2023-05-14T11:18:46.701Z,7.50
2023-05-14T11:21:08.189Z,6.63
2023-05-14T11:23:29.427Z,6.90
2023-05-14T11:25:50.866Z,6.67
2023-05-14T11:28:12.275Z,6.13
2023-05-14T11:30:33.682Z,6.00
2023-05-14T11:32:55.232Z,5.17
2023-05-14T11:35:17.837Z,5.00
2023-05-14T11:37:39.360Z,6.03
2023-05-14T11:40:01.831Z,5.20
2023-05-14T11:42:23.860Z,5.00
2023-05-14T11:44:45.842Z,4.97
2023-05-14T11:47:07.611Z,4.53
2023-05-14T11:49:30.047Z,4.20
2023-05-14T11:51:58.225Z,4.00
2023-05-14T11:54:19.187Z,4.10
2023-05-14T11:56:40.505Z,3.97
2023-05-14T11:59:01.833Z,3.70
2023-05-14T12:01:23.042Z,3.53
2023-05-14T12:03:44.536Z,3.80
2023-05-14T12:06:07.871Z,4.10
2023-05-14T12:08:31.305Z,4.30
2023-05-14T12:10:53.682Z,4.37
2023-05-14T12:13:16.290Z,3.80
2023-05-14T12:15:38.197Z,4.00
2023-05-14T12:17:59.222Z,3.77
2023-05-14T12:20:20.718Z,3.63
2023-05-14T12:22:42.671Z,4.17
2023-05-14T12:25:06.617Z,3.90
2023-05-14T12:27:28.629Z,3.87
2023-05-14T12:29:49.896Z,3.67
2023-05-14T12:32:11.388Z,3.60
2023-05-14T12:34:32.577Z,3.70
2023-05-14T12:36:54.098Z,4.80
2023-05-14T12:39:15.416Z,4.23
2023-05-14T12:41:38.209Z,4.20
2023-05-14T12:43:59.603Z,4.10
2023-05-14T12:46:21.057Z,3.77
2023-05-14T12:48:42.268Z,3.40
2023-05-14T12:51:03.685Z,4.03
2023-05-14T12:53:24.991Z,4.03
2023-05-14T12:55:46.208Z,4.20
2023-05-14T12:58:09.116Z,4.37
2023-05-14T13:00:30.605Z,4.00
2023-05-14T13:02:51.628Z,4.03
2023-05-14T13:05:13.453Z,4.10
2023-05-14T13:07:34.824Z,4.40
2023-05-14T13:09:56.130Z,4.00
2023-05-14T13:12:17.776Z,3.90
2023-05-14T13:14:40.590Z,3.80
2023-05-14T13:17:02.114Z,3.80
2023-05-14T13:19:23.400Z,4.17
2023-05-14T13:21:44.837Z,3.70
2023-05-14T13:24:06.516Z,3.93
2023-05-14T13:26:28.259Z,3.50
2023-05-14T13:28:49.180Z,3.90
2023-05-14T13:31:13.219Z,3.50
2023-05-14T13:33:35.880Z,4.30
2023-05-14T13:35:57.205Z,3.93
2023-05-14T13:38:18.773Z,3.37
2023-05-14T13:40:40.203Z,3.23
2023-05-14T13:43:01.763Z,3.10
2023-05-14T13:45:23.151Z,3.50
2023-05-14T13:47:45.867Z,3.43
2023-05-14T13:50:07.834Z,3.50
2023-05-14T13:52:29.117Z,3.30
2023-05-14T13:54:50.501Z,3.80
2023-05-14T13:57:11.928Z,3.30
2023-05-14T13:59:32.953Z,3.60
2023-05-14T14:01:54.384Z,3.43
2023-05-14T14:04:16.894Z,3.27
2023-05-14T14:06:37.745Z,3.43
2023-05-14T14:08:59.039Z,3.30
2023-05-14T14:11:20.660Z,3.30
2023-05-14T14:13:43.800Z,3.00
2023-05-14T14:16:07.714Z,3.27
2023-05-14T14:18:28.921Z,3.47
2023-05-14T14:20:51.665Z,3.20
2023-05-14T14:23:12.644Z,3.00
2023-05-14T14:25:33.886Z,3.30
2023-05-14T14:27:55.290Z,3.03
2023-05-14T14:30:16.590Z,2.80
2023-05-14T14:32:37.906Z,3.03
2023-05-14T14:34:59.050Z,3.03
2023-05-14T14:37:23.159Z,3.60
2023-05-14T14:39:44.796Z,3.53
2023-05-14T14:42:06.841Z,3.10
2023-05-14T14:44:29.029Z,3.30
2023-05-14T14:46:50.188Z,3.40
2023-05-14T14:49:11.496Z,3.73
2023-05-14T14:51:33.050Z,3.37
2023-05-14T14:53:55.747Z,3.43
2023-05-14T14:56:16.738Z,3.73
2023-05-14T14:58:38.432Z,4.00
2023-05-14T15:00:59.791Z,3.80
2023-05-14T15:03:21.330Z,3.60
2023-05-14T15:05:42.807Z,3.67
2023-05-14T15:08:04.172Z,3.57
2023-05-14T15:10:28.191Z,4.07
2023-05-14T15:12:49.778Z,4.17
2023-05-14T15:15:11.149Z,3.63
2023-05-14T15:17:32.241Z,3.77
2023-05-14T15:19:53.589Z,3.50
2023-05-14T15:22:14.934Z,3.50
2023-05-14T15:24:36.214Z,3.57
2023-05-14T15:26:58.882Z,4.03
2023-05-14T15:29:20.157Z,3.93
2023-05-14T15:31:41.726Z,3.90
2023-05-14T15:34:03.640Z,3.80
2023-05-14T15:36:25.223Z,3.87
2023-05-14T15:38:46.961Z,3.93
2023-05-14T15:41:08.669Z,3.70
2023-05-14T15:43:31.294Z,3.80
2023-05-14T15:45:52.560Z,3.80
2023-05-14T15:48:13.825Z,4.23
2023-05-14T15:50:35.309Z,3.70
2023-05-14T15:52:57.064Z,3.80
2023-05-14T15:55:18.363Z,4.10
2023-05-14T15:57:39.721Z,4.33
2023-05-14T16:00:03.872Z,4.10
2023-05-14T16:02:25.417Z,3.90
2023-05-14T16:04:46.778Z,3.90
2023-05-14T16:07:10.023Z,3.70
2023-05-14T16:09:32.056Z,3.70
2023-05-14T16:11:53.040Z,3.50
2023-05-14T16:14:14.371Z,3.13
2023-05-14T16:16:37.168Z,3.03
2023-05-14T16:18:58.940Z,3.40
2023-05-14T16:21:20.384Z,3.50
2023-05-14T16:23:41.797Z,3.30
2023-05-14T16:26:03.091Z,3.70
2023-05-14T16:28:24.459Z,3.27
2023-05-14T16:30:45.844Z,3.00
2023-05-14T16:33:08.482Z,3.40
2023-05-14T16:35:29.889Z,3.97
2023-05-14T16:37:51.522Z,4.43
2023-05-14T16:40:13.064Z,3.53
2023-05-14T16:42:34.337Z,3.40
2023-05-14T16:44:55.777Z,3.80
2023-05-14T16:47:17.130Z,3.90
2023-05-14T16:49:39.539Z,3.70
2023-05-14T16:52:00.973Z,3.80
2023-05-14T16:54:22.290Z,3.73
2023-05-14T16:56:47.935Z,3.87
2023-05-14T16:59:09.667Z,3.47
2023-05-14T17:01:31.077Z,3.60
2023-05-14T17:03:52.401Z,3.40
2023-05-14T17:06:15.566Z,3.90
2023-05-14T17:08:36.622Z,3.80
2023-05-14T17:10:57.841Z,3.60
2023-05-14T17:13:19.147Z,3.60
2023-05-14T17:15:42.447Z,3.60
2023-05-14T17:18:03.808Z,3.30
2023-05-14T17:20:25.103Z,3.20
2023-05-14T17:22:47.954Z,3.17
2023-05-14T17:25:10.050Z,3.37
2023-05-14T17:27:33.269Z,3.43
2023-05-14T17:29:54.591Z,3.20
2023-05-14T17:32:16.004Z,3.13
2023-05-14T17:34:37.273Z,3.37
2023-05-14T17:36:58.714Z,3.30
2023-05-14T17:39:21.275Z,3.50
2023-05-14T17:41:42.744Z,3.20
2023-05-14T17:44:03.862Z,3.20
2023-05-14T17:46:25.118Z,3.37
2023-05-14T17:48:46.347Z,3.10
2023-05-14T17:51:07.664Z,3.17
2023-05-14T17:53:29.030Z,3.40
2023-05-14T17:55:52.135Z,2.73
2023-05-14T17:58:14.341Z,2.90
2023-05-14T18:00:35.723Z,2.80
2023-05-14T18:02:57.114Z,3.20
2023-05-14T18:05:20.609Z,3.00
2023-05-14T18:07:42.076Z,3.07
2023-05-14T18:10:03.484Z,3.13
2023-05-14T18:12:27.486Z,3.17
2023-05-14T18:14:48.707Z,3.37
2023-05-14T18:17:10.217Z,3.30
2023-05-14T18:19:31.613Z,3.57
2023-05-14T18:21:55.559Z,3.80
2023-05-14T18:24:16.898Z,3.30
2023-05-14T18:26:38.400Z,3.70
2023-05-14T18:29:01.156Z,3.70
2023-05-14T18:31:22.255Z,3.63
2023-05-14T18:33:43.621Z,3.30
2023-05-14T18:36:05.346Z,3.73
2023-05-14T18:38:26.573Z,3.53
2023-05-14T18:40:49.645Z,3.63
2023-05-14T18:43:11.510Z,3.60
2023-05-14T18:45:34.180Z,3.37
2023-05-14T18:47:56.049Z,3.67
2023-05-14T18:50:17.312Z,3.23
2023-05-14T18:52:38.312Z,3.63
2023-05-14T18:54:59.820Z,4.00
2023-05-14T18:57:21.318Z,3.40
2023-05-14T18:59:42.650Z,3.50
2023-05-14T19:02:05.482Z,3.63
2023-05-14T19:04:27.156Z,3.67
2023-05-14T19:06:48.309Z,3.97
2023-05-14T19:09:09.564Z,3.77
2023-05-14T19:11:30.714Z,3.50
2023-05-14T19:13:51.971Z,3.73
2023-05-14T19:16:13.310Z,3.83
2023-05-14T19:18:36.109Z,4.33
2023-05-14T19:20:57.801Z,3.90
2023-05-14T19:23:18.831Z,3.37
2023-05-14T19:25:40.334Z,4.00
2023-05-14T19:28:03.749Z,3.77
2023-05-14T19:30:24.896Z,3.73
2023-05-14T19:32:46.108Z,3.80
2023-05-14T19:35:09.233Z,3.47
2023-05-14T19:37:30.628Z,4.30
2023-05-14T19:39:51.823Z,3.90
2023-05-14T19:42:13.135Z,3.83
2023-05-14T19:44:34.556Z,3.83
2023-05-14T19:46:55.865Z,5.17
2023-05-14T19:49:17.338Z,3.97
2023-05-14T19:51:39.931Z,4.50
2023-05-14T19:54:01.180Z,4.30
2023-05-14T19:56:23.543Z,4.37
2023-05-14T19:58:45.905Z,3.90
2023-05-14T20:01:07.166Z,4.10
2023-05-14T20:03:28.706Z,4.60
2023-05-14T20:05:50.136Z,5.40
2023-05-14T20:08:12.991Z,6.10
2023-05-14T20:10:34.383Z,5.20
2023-05-14T20:12:56.025Z,6.17
2023-05-14T20:15:17.206Z,6.60
2023-05-14T20:17:38.994Z,7.17
2023-05-14T20:20:00.245Z,5.87
2023-05-14T20:22:21.748Z,6.83
2023-05-14T20:24:44.709Z,6.83
2023-05-14T20:27:06.141Z,6.70
2023-05-14T20:29:27.260Z,7.20
2023-05-14T20:31:48.693Z,7.30
2023-05-14T20:34:10.126Z,7.10
2023-05-14T20:36:31.768Z,7.30
2023-05-14T20:38:53.007Z,6.90
2023-05-14T20:41:15.774Z,7.13
2023-05-14T20:43:36.805Z,6.70
2023-05-14T20:45:58.635Z,7.77
2023-05-14T20:48:21.517Z,7.47
2023-05-14T20:50:42.668Z,7.80
2023-05-14T20:53:04.237Z,7.23
2023-05-14T20:55:25.382Z,7.57
2023-05-14T20:57:49.590Z,7.57
2023-05-14T21:00:11.169Z,7.17
2023-05-14T21:02:32.435Z,7.97
2023-05-14T21:04:53.925Z,7.87
2023-05-14T21:07:15.351Z,7.27
2023-05-14T21:09:36.849Z,7.03
2023-05-14T21:11:58.244Z,7.13
2023-05-14T21:14:21.291Z,7.03
2023-05-14T21:16:42.418Z,6.87
2023-05-14T21:19:04.924Z,7.10
2023-05-14T21:21:26.976Z,7.07
2023-05-14T21:23:48.283Z,6.93
2023-05-14T21:26:09.561Z,6.77
2023-05-14T21:28:31.375Z,7.13
2023-05-14T21:30:53.755Z,7.07
2023-05-14T21:33:15.588Z,7.23
2023-05-14T21:35:37.112Z,6.50
2023-05-14T21:37:58.606Z,6.90
2023-05-14T21:40:20.090Z,6.53
2023-05-14T21:42:41.516Z,6.77
2023-05-14T21:45:03.137Z,6.43
2023-05-14T21:47:25.766Z,6.63
2023-05-14T21:49:47.206Z,6.40
2023-05-14T21:52:09.516Z,6.50
2023-05-14T21:54:30.729Z,6.70
2023-05-14T21:56:52.016Z,7.10
2023-05-14T21:59:13.364Z,7.17
2023-05-14T22:01:42.138Z,6.80
2023-05-14T22:04:13.566Z,7.30
2023-05-14T22:06:34.900Z,7.13
2023-05-14T22:08:56.204Z,7.97
2023-05-14T22:11:17.736Z,7.57
2023-05-14T22:13:41.391Z,8.17
2023-05-14T22:16:12.021Z,7.73
2023-05-14T22:18:34.988Z,8.13
2023-05-14T22:20:57.671Z,8.57
2023-05-14T22:23:18.732Z,8.07
2023-05-14T22:25:40.204Z,8.77
2023-05-14T22:28:01.683Z,8.57
2023-05-14T22:30:23.387Z,8.23
2023-05-14T22:32:44.569Z,9.20
2023-05-14T22:35:06.427Z,8.17
2023-05-14T22:37:28.927Z,9.23
2023-05-14T22:39:50.175Z,7.90
2023-05-14T22:42:11.531Z,8.77
2023-05-14T22:44:32.699Z,8.63
2023-05-14T22:46:54.075Z,8.10
2023-05-14T22:49:15.369Z,8.30
2023-05-14T22:51:36.698Z,9.10
2023-05-14T22:53:59.308Z,7.93
2023-05-14T22:56:21.700Z,8.40
2023-05-14T22:58:43.209Z,7.93
2023-05-14T23:01:04.585Z,8.20
2023-05-14T23:03:26.215Z,8.53
2023-05-14T23:05:47.586Z,8.17
2023-05-14T23:08:09.279Z,8.20
2023-05-14T23:10:32.100Z,7.73
2023-05-14T23:12:53.283Z,8.70
2023-05-14T23:15:14.629Z,8.50
2023-05-14T23:17:36.137Z,8.90
2023-05-14T23:19:57.492Z,9.17
2023-05-14T23:22:18.865Z,8.70
2023-05-14T23:24:40.305Z,8.67
2023-05-14T23:27:03.392Z,8.57
2023-05-14T23:29:24.817Z,9.37
2023-05-14T23:31:46.305Z,8.93
2023-05-14T23:34:07.870Z,9.03
2023-05-14T23:36:31.381Z,8.60
2023-05-14T23:38:52.765Z,8.90
2023-05-14T23:41:14.171Z,8.10
2023-05-14T23:43:37.111Z,8.60
2023-05-14T23:45:58.733Z,8.57
2023-05-14T23:48:19.737Z,9.00
2023-05-14T23:50:41.254Z,9.07
2023-05-14T23:53:02.597Z,9.73
2023-05-14T23:55:24.160Z,9.00
2023-05-14T23:57:45.502Z,8.93
